Time;durP1;ratioP1;P1;durP2;ratioP2;P2;SDS_P1;SDS_P2;PMS_P1;PMS_P2;Temp;Humidity;BMP_temperature;BMP_pressure;BME280_temperature;BME280_humidity;BME280_pressure;Samples;Min_cycle;Max_cycle;Signal;HPM_P1;HPM_P2
2022/05/09 00:01:56;;;;;;;24.00;5.15;;;;;;;;;;5029913;28;21194;-78
2022/05/09 00:04:22;;;;;;;17.10;4.68;;;;;;;;;;5047133;28;20049;-79
2022/05/09 00:06:49;;;;;;;21.08;4.65;;;;;;;;;;5068704;28;20132;-78
2022/05/09 00:09:16;;;;;;;26.00;4.97;;;;;;;;;;5048780;28;20533;-79
2022/05/09 00:11:42;;;;;;;22.17;5.18;;;;;;;;;;5067447;28;20504;-79
2022/05/09 00:14:09;;;;;;;17.90;4.90;;;;;;;;;;5068667;28;20522;-79
2022/05/09 00:16:35;;;;;;;15.75;4.60;;;;;;;;;;5063880;28;20048;-78
2022/05/09 00:19:03;;;;;;;21.85;5.00;;;;;;;;;;5068647;28;20164;-75
2022/05/09 00:21:33;;;;;;;29.25;5.10;;;;;;;;;;5048660;28;20045;-78
2022/05/09 00:24:00;;;;;;;20.02;4.65;;;;;;;;;;5068319;28;20084;-77
2022/05/09 00:26:31;;;;;;;16.63;4.70;;;;;;;;;;5048126;28;20045;-76
2022/05/09 00:28:58;;;;;;;20.02;4.93;;;;;;;;;;5070576;28;20049;-74
2022/05/09 00:31:24;;;;;;;25.45;5.68;;;;;;;;;;5073709;28;20539;-77
2022/05/09 00:33:50;;;;;;;24.25;4.53;;;;;;;;;;5071447;28;20051;-74
2022/05/09 00:36:17;;;;;;;21.80;4.72;;;;;;;;;;5069913;28;20051;-78
2022/05/09 00:38:44;;;;;;;25.30;5.10;;;;;;;;;;5067068;28;20170;-75
2022/05/09 00:41:28;;;;;;;17.00;4.82;;;;;;;;;;5068048;28;20489;-74
2022/05/09 00:43:55;;;;;;;25.30;4.90;;;;;;;;;;5066338;28;20068;-78
2022/05/09 00:46:22;;;;;;;24.35;4.50;;;;;;;;;;5066871;28;20123;-76
2022/05/09 00:48:48;;;;;;;17.10;4.15;;;;;;;;;;5068093;28;20041;-77
2022/05/09 00:51:18;;;;;;;23.33;6.00;;;;;;;;;;5048154;28;20032;-76
2022/05/09 00:53:44;;;;;;;14.70;4.15;;;;;;;;;;5049991;28;20059;-77
2022/05/09 00:56:13;;;;;;;14.85;3.95;;;;;;;;;;5062864;28;20032;-75
2022/05/09 00:58:43;;;;;;;21.13;4.40;;;;;;;;;;5065875;28;20041;-80
2022/05/09 01:01:10;;;;;;;19.83;4.30;;;;;;;;;;5063883;28;20123;-73
2022/05/09 01:03:39;;;;;;;22.20;4.55;;;;;;;;;;5064836;28;20052;-76
2022/05/09 01:06:05;;;;;;;18.85;4.63;;;;;;;;;;5067305;28;20430;-73
2022/05/09 01:08:32;;;;;;;11.85;4.20;;;;;;;;;;5066015;28;20048;-76
2022/05/09 01:10:59;;;;;;;13.52;4.47;;;;;;;;;;5067287;28;20068;-74
2022/05/09 01:13:26;;;;;;;18.20;4.60;;;;;;;;;;5066085;28;20037;-76
2022/05/09 01:15:54;;;;;;;24.33;5.13;;;;;;;;;;5066776;28;20037;-74
2022/05/09 01:18:21;;;;;;;17.75;5.10;;;;;;;;;;5066663;28;20404;-73
2022/05/09 01:20:47;;;;;;;17.00;5.25;;;;;;;;;;5066912;28;20052;-74
2022/05/09 01:23:13;;;;;;;15.95;4.72;;;;;;;;;;5066604;28;20057;-77
2022/05/09 01:25:40;;;;;;;15.18;4.30;;;;;;;;;;5065742;28;20049;-74
2022/05/09 01:28:06;;;;;;;14.23;4.45;;;;;;;;;;5049474;28;20123;-74
2022/05/09 01:30:42;;;;;;;13.73;4.55;;;;;;;;;;5064123;28;20047;-74
2022/05/09 01:33:14;;;;;;;11.18;4.10;;;;;;;;;;5067080;28;20040;-77
2022/05/09 01:35:52;;;;;;;14.88;4.80;;;;;;;;;;5066192;28;20576;-73
2022/05/09 01:38:39;;;;;;;13.18;4.43;;;;;;;;;;5045973;28;20056;-73
2022/05/09 01:41:05;;;;;;;16.98;4.82;;;;;;;;;;5032770;28;20041;-75
2022/05/09 01:43:36;;;;;;;15.70;4.57;;;;;;;;;;5064352;28;20037;-73
2022/05/09 01:46:06;;;;;;;19.83;4.85;;;;;;;;;;5067822;28;20125;-75
2022/05/09 01:51:21;;;;;;;12.35;4.35;;;;;;;;;;5024326;28;20044;-79
2022/05/09 01:53:53;;;;;;;13.65;4.47;;;;;;;;;;5057993;28;20140;-79
2022/05/09 01:56:20;;;;;;;13.05;3.85;;;;;;;;;;5065959;28;20044;-80
2022/05/09 01:58:46;;;;;;;14.73;4.13;;;;;;;;;;5067236;28;20041;-78
2022/05/09 02:01:13;;;;;;;8.20;3.47;;;;;;;;;;5065100;28;20428;-79
2022/05/09 02:03:39;;;;;;;18.48;3.85;;;;;;;;;;5068072;28;20131;-80
2022/05/09 02:06:07;;;;;;;14.70;3.80;;;;;;;;;;5048528;28;20106;-79
2022/05/09 02:08:33;;;;;;;17.73;4.72;;;;;;;;;;5067418;28;20118;-78
2022/05/09 02:10:59;;;;;;;9.85;3.90;;;;;;;;;;5067316;28;20044;-75
2022/05/09 02:13:25;;;;;;;16.90;4.00;;;;;;;;;;5047575;28;20696;-76
2022/05/09 02:15:51;;;;;;;13.18;3.60;;;;;;;;;;5067313;28;20086;-75
2022/05/09 02:18:18;;;;;;;12.57;4.35;;;;;;;;;;5048545;28;20080;-74
2022/05/09 02:20:46;;;;;;;15.25;4.15;;;;;;;;;;5049449;28;20137;-75
2022/05/09 02:23:13;;;;;;;19.70;5.32;;;;;;;;;;5065935;28;20052;-75
2022/05/09 02:25:39;;;;;;;17.00;3.95;;;;;;;;;;5066569;28;20044;-75
2022/05/09 02:28:09;;;;;;;14.63;4.80;;;;;;;;;;5065999;28;20529;-73
2022/05/09 02:30:38;;;;;;;8.25;3.58;;;;;;;;;;5047736;28;20075;-74
2022/05/09 02:33:04;;;;;;;12.75;4.47;;;;;;;;;;5049219;28;20040;-75
2022/05/09 02:35:31;;;;;;;17.60;4.63;;;;;;;;;;5064972;28;20581;-75
2022/05/09 02:37:57;;;;;;;16.33;4.32;;;;;;;;;;5032814;28;20032;-74
2022/05/09 02:40:26;;;;;;;10.50;4.30;;;;;;;;;;5047517;28;20508;-74
2022/05/09 02:42:54;;;;;;;11.82;4.00;;;;;;;;;;5049329;28;20130;-74
2022/05/09 02:45:20;;;;;;;14.98;4.90;;;;;;;;;;5065268;28;20054;-75
2022/05/09 02:47:47;;;;;;;15.48;4.47;;;;;;;;;;5031103;28;20044;-74
2022/05/09 02:50:14;;;;;;;13.13;4.20;;;;;;;;;;5049099;28;20051;-76
2022/05/09 02:52:41;;;;;;;13.40;4.95;;;;;;;;;;5047378;28;20041;-74
2022/05/09 02:55:08;;;;;;;16.13;4.30;;;;;;;;;;5053718;28;20052;-74
2022/05/09 02:57:34;;;;;;;11.70;4.20;;;;;;;;;;5074918;28;20621;-75
2022/05/09 03:00:01;;;;;;;8.52;3.88;;;;;;;;;;5066668;28;20051;-75
2022/05/09 03:02:27;;;;;;;12.57;4.68;;;;;;;;;;5080850;28;20040;-76
2022/05/09 03:04:53;;;;;;;12.88;3.72;;;;;;;;;;5055549;28;20412;-74
2022/05/09 03:07:20;;;;;;;13.50;4.68;;;;;;;;;;5067329;28;20059;-76
2022/05/09 03:09:47;;;;;;;14.38;3.80;;;;;;;;;;5065049;28;20044;-75
2022/05/09 03:12:19;;;;;;;12.48;4.70;;;;;;;;;;5066545;28;20055;-75
2022/05/09 03:14:46;;;;;;;8.40;4.72;;;;;;;;;;5046797;28;20047;-75
2022/05/09 03:17:12;;;;;;;12.95;4.35;;;;;;;;;;5066657;28;20044;-75
2022/05/09 03:19:38;;;;;;;9.15;4.47;;;;;;;;;;5030949;28;20056;-75
2022/05/09 03:22:05;;;;;;;15.68;5.40;;;;;;;;;;5048525;28;20067;-76
2022/05/09 03:24:31;;;;;;;12.10;4.38;;;;;;;;;;5065247;28;20048;-76
2022/05/09 03:26:59;;;;;;;11.43;4.22;;;;;;;;;;5063962;28;20028;-75
2022/05/09 03:29:26;;;;;;;10.55;3.50;;;;;;;;;;5066225;28;20049;-75
2022/05/09 03:31:53;;;;;;;12.90;4.05;;;;;;;;;;5064270;28;20044;-76
2022/05/09 03:34:19;;;;;;;15.55;4.53;;;;;;;;;;5047095;28;20048;-78
2022/05/09 03:36:46;;;;;;;13.15;4.32;;;;;;;;;;5064344;28;20041;-76
2022/05/09 03:39:12;;;;;;;15.27;4.85;;;;;;;;;;5065913;28;20044;-76
2022/05/09 03:41:38;;;;;;;20.13;4.85;;;;;;;;;;5047181;28;20123;-77
2022/05/09 03:44:05;;;;;;;17.45;5.25;;;;;;;;;;5047068;28;20037;-75
2022/05/09 03:46:31;;;;;;;10.68;4.90;;;;;;;;;;5047911;28;21901;-75
2022/05/09 03:48:57;;;;;;;12.00;4.43;;;;;;;;;;5057119;28;20083;-75
2022/05/09 03:51:23;;;;;;;15.77;4.78;;;;;;;;;;5065177;28;20083;-74
2022/05/09 03:53:50;;;;;;;16.05;5.07;;;;;;;;;;5064463;28;20036;-75
2022/05/09 03:56:16;;;;;;;15.27;5.13;;;;;;;;;;5028874;28;20044;-75
2022/05/09 03:58:42;;;;;;;13.88;5.13;;;;;;;;;;5027374;28;20116;-75
2022/05/09 04:01:08;;;;;;;10.40;4.82;;;;;;;;;;5061816;28;20044;-76
2022/05/09 04:03:34;;;;;;;13.93;5.03;;;;;;;;;;5066182;28;20139;-77
2022/05/09 04:06:01;;;;;;;8.75;4.35;;;;;;;;;;5062774;28;20124;-76
2022/05/09 04:08:27;;;;;;;14.35;5.30;;;;;;;;;;5063733;28;20033;-74
2022/05/09 04:10:57;;;;;;;19.20;4.97;;;;;;;;;;5063440;28;20119;-74
2022/05/09 04:13:23;;;;;;;8.45;3.85;;;;;;;;;;5064748;28;20052;-75
2022/05/09 04:18:40;;;;;;;18.92;5.57;;;;;;;;;;5046695;28;20577;-75
2022/05/09 04:21:06;;;;;;;13.63;5.05;;;;;;;;;;5045418;28;20528;-75
2022/05/09 04:23:33;;;;;;;18.83;5.68;;;;;;;;;;5045694;28;20072;-74
2022/05/09 04:26:00;;;;;;;17.60;5.57;;;;;;;;;;5047061;28;20052;-74
2022/05/09 04:28:26;;;;;;;11.82;4.78;;;;;;;;;;5061473;28;20804;-74
2022/05/09 04:30:52;;;;;;;14.05;4.60;;;;;;;;;;5041736;28;20123;-76
2022/05/09 04:33:18;;;;;;;9.23;4.45;;;;;;;;;;5064766;28;20342;-75
2022/05/09 04:35:45;;;;;;;18.58;5.40;;;;;;;;;;5045080;28;20080;-74
2022/05/09 04:38:21;;;;;;;12.98;5.00;;;;;;;;;;5060981;28;20119;-75
2022/05/09 04:40:51;;;;;;;16.98;5.45;;;;;;;;;;5045960;28;20060;-74
2022/05/09 04:43:17;;;;;;;21.42;6.22;;;;;;;;;;5046665;28;20452;-75
2022/05/09 04:45:43;;;;;;;17.55;5.70;;;;;;;;;;5062200;28;20088;-76
2022/05/09 04:48:09;;;;;;;17.38;5.55;;;;;;;;;;5046339;28;20400;-74
2022/05/09 04:50:36;;;;;;;18.92;5.85;;;;;;;;;;5049228;28;20048;-75
2022/05/09 04:53:02;;;;;;;16.70;5.30;;;;;;;;;;5067665;28;20051;-75
2022/05/09 04:55:28;;;;;;;16.33;5.88;;;;;;;;;;5034770;28;20040;-76
2022/05/09 04:57:56;;;;;;;13.93;6.03;;;;;;;;;;5049382;28;20041;-75
2022/05/09 05:00:25;;;;;;;16.88;5.38;;;;;;;;;;5051171;28;20059;-76
2022/05/09 05:02:51;;;;;;;13.93;5.68;;;;;;;;;;5049071;28;20045;-74
2022/05/09 05:05:17;;;;;;;12.95;5.40;;;;;;;;;;5050806;28;20063;-75
2022/05/09 05:07:43;;;;;;;13.68;5.15;;;;;;;;;;5049646;28;20102;-75
2022/05/09 05:10:12;;;;;;;13.00;5.60;;;;;;;;;;5049771;28;20500;-76
2022/05/09 05:12:38;;;;;;;19.65;6.53;;;;;;;;;;5069793;28;20048;-79
2022/05/09 05:15:05;;;;;;;21.30;8.27;;;;;;;;;;5067877;28;20107;-76
2022/05/09 05:17:31;;;;;;;23.63;7.68;;;;;;;;;;5069052;28;20047;-78
2022/05/09 05:19:57;;;;;;;24.02;9.02;;;;;;;;;;5066971;28;20936;-75
2022/05/09 05:22:23;;;;;;;20.92;9.68;;;;;;;;;;5017756;28;20045;-78
2022/05/09 05:24:53;;;;;;;27.83;10.50;;;;;;;;;;5032179;28;20045;-75
2022/05/09 05:27:21;;;;;;;24.42;9.23;;;;;;;;;;5050664;28;20037;-79
2022/05/09 05:29:47;;;;;;;24.85;9.77;;;;;;;;;;5053149;28;20147;-79
2022/05/09 05:32:21;;;;;;;31.55;9.77;;;;;;;;;;5055033;28;20542;-79
2022/05/09 05:34:48;;;;;;;29.35;10.48;;;;;;;;;;5038447;28;20048;-75
2022/05/09 05:37:16;;;;;;;22.52;10.27;;;;;;;;;;5067951;28;20131;-75
2022/05/09 05:39:43;;;;;;;28.80;10.30;;;;;;;;;;5068524;28;20044;-76
2022/05/09 05:42:10;;;;;;;36.97;11.35;;;;;;;;;;5021061;28;20045;-78
2022/05/09 05:44:37;;;;;;;26.90;10.02;;;;;;;;;;5047878;28;20080;-75
2022/05/09 05:47:10;;;;;;;30.10;10.95;;;;;;;;;;5029597;28;20091;-76
2022/05/09 05:49:37;;;;;;;32.70;11.25;;;;;;;;;;5029355;28;20045;-75
2022/05/09 05:52:04;;;;;;;30.02;9.70;;;;;;;;;;5047052;28;20095;-76
2022/05/09 05:54:36;;;;;;;23.30;10.23;;;;;;;;;;5028129;28;20068;-76
2022/05/09 05:57:03;;;;;;;27.67;10.10;;;;;;;;;;5032021;28;20167;-76
2022/05/09 05:59:29;;;;;;;29.15;9.90;;;;;;;;;;5031388;28;20113;-75
2022/05/09 06:01:55;;;;;;;25.70;9.45;;;;;;;;;;5016816;28;20117;-77
2022/05/09 06:04:21;;;;;;;25.65;9.63;;;;;;;;;;5067967;28;20439;-76
2022/05/09 06:06:48;;;;;;;34.42;9.98;;;;;;;;;;5067349;28;20068;-78
2022/05/09 06:09:15;;;;;;;29.75;10.00;;;;;;;;;;5070187;28;20045;-76
2022/05/09 06:11:42;;;;;;;23.83;9.60;;;;;;;;;;5069468;28;20037;-79
2022/05/09 06:14:09;;;;;;;24.00;10.15;;;;;;;;;;5055469;28;20028;-79
2022/05/09 06:16:36;;;;;;;29.23;9.02;;;;;;;;;;5077298;28;20126;-77
2022/05/09 06:19:03;;;;;;;32.00;8.25;;;;;;;;;;5077633;28;20412;-77
2022/05/09 06:21:31;;;;;;;22.55;7.72;;;;;;;;;;5069836;28;20048;-76
2022/05/09 06:23:57;;;;;;;30.55;7.78;;;;;;;;;;5067992;28;20086;-77
2022/05/09 06:26:27;;;;;;;29.60;7.57;;;;;;;;;;5067884;28;20045;-76
2022/05/09 06:28:54;;;;;;;29.55;7.60;;;;;;;;;;5047437;28;20045;-76
2022/05/09 06:31:20;;;;;;;21.77;7.90;;;;;;;;;;5066704;28;20094;-77
2022/05/09 06:33:46;;;;;;;28.92;7.40;;;;;;;;;;5066193;28;20052;-75
2022/05/09 06:36:12;;;;;;;27.77;8.57;;;;;;;;;;5067645;28;20064;-75
2022/05/09 06:38:38;;;;;;;34.20;8.80;;;;;;;;;;5066893;28;20080;-75
2022/05/09 06:41:05;;;;;;;21.17;7.70;;;;;;;;;;5049708;28;20516;-77
2022/05/09 06:43:32;;;;;;;24.70;8.52;;;;;;;;;;5032772;28;20127;-75
2022/05/09 06:45:58;;;;;;;24.35;8.00;;;;;;;;;;5006810;28;20757;-77
2022/05/09 06:48:24;;;;;;;24.92;8.55;;;;;;;;;;5012868;28;20037;-76
2022/05/09 06:50:50;;;;;;;22.98;9.05;;;;;;;;;;5026784;28;20521;-74
2022/05/09 06:53:16;;;;;;;39.72;10.35;;;;;;;;;;5046673;28;20526;-76
2022/05/09 06:55:42;;;;;;;28.17;9.18;;;;;;;;;;5044915;28;20082;-76
2022/05/09 06:58:12;;;;;;;26.38;9.50;;;;;;;;;;5046484;28;20524;-76
2022/05/09 07:00:38;;;;;;;27.60;9.63;;;;;;;;;;5045863;28;20139;-76
2022/05/09 07:03:05;;;;;;;24.55;9.18;;;;;;;;;;5065362;28;20040;-77
2022/05/09 07:05:31;;;;;;;27.83;10.82;;;;;;;;;;5066561;28;20059;-75
2022/05/09 07:07:58;;;;;;;28.30;10.70;;;;;;;;;;5064351;28;20040;-76
2022/05/09 07:10:26;;;;;;;25.08;10.35;;;;;;;;;;5046554;28;20040;-76
2022/05/09 07:12:54;;;;;;;24.88;9.52;;;;;;;;;;5064019;28;20060;-76
2022/05/09 07:15:25;;;;;;;22.98;9.95;;;;;;;;;;5043993;28;20063;-77
2022/05/09 07:17:52;;;;;;;24.17;9.02;;;;;;;;;;5058351;28;20052;-76
2022/05/09 07:20:19;;;;;;;20.83;8.20;;;;;;;;;;5057484;28;20102;-75
2022/05/09 07:22:45;;;;;;;22.92;9.38;;;;;;;;;;5059897;28;20041;-76
2022/05/09 07:25:13;;;;;;;31.58;9.43;;;;;;;;;;5040571;28;20059;-76
2022/05/09 07:27:42;;;;;;;18.38;8.77;;;;;;;;;;5042705;28;20373;-77
2022/05/09 07:30:09;;;;;;;22.13;9.52;;;;;;;;;;5057580;28;20050;-76
2022/05/09 07:32:36;;;;;;;25.80;9.27;;;;;;;;;;5058699;28;20028;-75
2022/05/09 07:35:03;;;;;;;21.90;8.75;;;;;;;;;;5057334;28;20416;-76
2022/05/09 07:37:29;;;;;;;24.08;9.63;;;;;;;;;;5024464;28;20044;-76
2022/05/09 07:39:55;;;;;;;23.75;8.68;;;;;;;;;;5057535;28;20149;-76
2022/05/09 07:42:21;;;;;;;20.00;9.43;;;;;;;;;;5039889;28;20040;-75
2022/05/09 07:44:48;;;;;;;21.50;8.60;;;;;;;;;;5060068;28;20094;-76
2022/05/09 07:47:14;;;;;;;21.25;8.55;;;;;;;;;;5055221;28;20101;-76
2022/05/09 07:49:43;;;;;;;25.48;8.60;;;;;;;;;;5043036;28;20033;-76
2022/05/09 07:52:15;;;;;;;23.48;9.30;;;;;;;;;;5055577;28;20488;-77
2022/05/09 07:54:41;;;;;;;18.00;8.35;;;;;;;;;;5059671;28;20075;-76
2022/05/09 07:57:07;;;;;;;21.50;7.95;;;;;;;;;;5059644;28;20090;-75
2022/05/09 07:59:33;;;;;;;24.95;7.90;;;;;;;;;;5043082;28;20047;-76
2022/05/09 08:01:59;;;;;;;19.83;7.40;;;;;;;;;;5058675;28;20079;-76
2022/05/09 08:04:25;;;;;;;18.27;7.78;;;;;;;;;;5057407;28;20046;-75
2022/05/09 08:06:51;;;;;;;18.52;7.60;;;;;;;;;;5041898;28;20064;-76
2022/05/09 08:09:17;;;;;;;15.68;7.82;;;;;;;;;;5058580;28;20563;-75
2022/05/09 08:11:44;;;;;;;16.55;7.47;;;;;;;;;;5058941;28;20132;-77
2022/05/09 08:14:11;;;;;;;19.15;7.25;;;;;;;;;;5055494;28;20083;-75
2022/05/09 08:16:37;;;;;;;19.70;7.72;;;;;;;;;;5061551;28;20055;-76
2022/05/09 08:19:04;;;;;;;22.90;7.88;;;;;;;;;;5025010;28;20047;-76
2022/05/09 08:21:31;;;;;;;17.50;7.22;;;;;;;;;;5056074;28;20132;-74
2022/05/09 08:23:58;;;;;;;18.85;7.05;;;;;;;;;;5042961;28;20051;-75
2022/05/09 08:26:25;;;;;;;26.15;6.88;;;;;;;;;;5062511;28;20949;-76
2022/05/09 08:28:56;;;;;;;19.70;6.68;;;;;;;;;;5064572;28;20040;-76
2022/05/09 08:31:22;;;;;;;16.13;5.72;;;;;;;;;;5058501;28;20044;-77
2022/05/09 08:33:49;;;;;;;13.70;6.03;;;;;;;;;;5045875;28;20494;-76
2022/05/09 08:39:01;;;;;;;15.80;6.22;;;;;;;;;;5042585;28;20080;-75
2022/05/09 08:41:30;;;;;;;16.73;5.90;;;;;;;;;;5068154;28;20052;-79
2022/05/09 08:44:15;;;;;;;16.35;6.35;;;;;;;;;;5043129;28;20059;-78
2022/05/09 08:46:47;;;;;;;15.90;5.68;;;;;;;;;;5073459;28;20035;-76
2022/05/09 08:49:16;;;;;;;20.65;6.30;;;;;;;;;;5051650;28;20037;-76
2022/05/09 08:51:42;;;;;;;15.70;7.00;;;;;;;;;;5063477;28;20098;-76
2022/05/09 08:54:12;;;;;;;18.75;6.82;;;;;;;;;;5032375;28;20083;-76
2022/05/09 08:56:38;;;;;;;21.17;6.70;;;;;;;;;;5045812;28;20052;-76
2022/05/09 08:59:09;;;;;;;16.10;7.20;;;;;;;;;;5064376;28;20037;-76
2022/05/09 09:01:38;;;;;;;15.82;6.57;;;;;;;;;;5060913;28;20119;-76
2022/05/09 09:04:05;;;;;;;18.40;7.30;;;;;;;;;;5030544;28;20134;-75
2022/05/09 09:06:32;;;;;;;18.60;6.80;;;;;;;;;;5044995;28;20061;-76
2022/05/09 09:09:12;;;;;;;20.70;6.60;;;;;;;;;;5063203;28;20110;-77
2022/05/09 09:11:46;;;;;;;18.75;7.68;;;;;;;;;;5065588;28;20668;-76
2022/05/09 09:14:19;;;;;;;15.13;6.53;;;;;;;;;;5063466;28;20044;-76
2022/05/09 09:16:48;;;;;;;15.20;6.03;;;;;;;;;;5044177;28;20086;-76
2022/05/09 09:19:32;;;;;;;21.27;6.47;;;;;;;;;;5063901;28;20393;-76
2022/05/09 09:22:18;;;;;;;13.93;6.05;;;;;;;;;;5045404;28;20056;-75
2022/05/09 09:25:07;;;;;;;14.70;5.93;;;;;;;;;;5060661;28;20465;-77
2022/05/09 09:27:41;;;;;;;22.35;6.78;;;;;;;;;;5020509;28;20109;-75
2022/05/09 09:30:13;;;;;;;14.25;5.88;;;;;;;;;;5062238;28;20208;-76
2022/05/09 09:32:41;;;;;;;15.60;6.10;;;;;;;;;;5043508;28;20041;-76
2022/05/09 09:35:13;;;;;;;17.73;6.30;;;;;;;;;;5062002;28;20229;-75
2022/05/09 09:37:51;;;;;;;13.38;5.60;;;;;;;;;;5060372;28;20461;-76
2022/05/09 09:40:17;;;;;;;15.90;5.85;;;;;;;;;;5061090;28;20047;-76
2022/05/09 09:42:43;;;;;;;16.65;5.32;;;;;;;;;;5062707;28;20037;-77
2022/05/09 09:45:28;;;;;;;13.07;6.22;;;;;;;;;;5061754;28;20135;-77
2022/05/09 09:48:07;;;;;;;14.65;6.00;;;;;;;;;;5062608;28;21649;-78
2022/05/09 09:50:33;;;;;;;16.20;6.00;;;;;;;;;;5060621;28;20541;-76
2022/05/09 09:53:01;;;;;;;9.23;5.88;;;;;;;;;;5060219;28;20048;-76
2022/05/09 09:55:28;;;;;;;14.43;6.57;;;;;;;;;;5063694;28;20036;-77
2022/05/09 09:57:55;;;;;;;13.38;6.32;;;;;;;;;;5060435;28;20059;-76
2022/05/09 10:00:21;;;;;;;16.73;5.72;;;;;;;;;;5061773;28;20045;-77
2022/05/09 10:02:48;;;;;;;18.85;6.65;;;;;;;;;;5041660;28;20040;-76
2022/05/09 10:05:16;;;;;;;16.42;6.95;;;;;;;;;;5060651;28;20048;-76
2022/05/09 10:07:45;;;;;;;14.15;6.50;;;;;;;;;;5027332;28;20047;-76
2022/05/09 10:10:17;;;;;;;17.83;6.32;;;;;;;;;;5061602;28;20064;-76
2022/05/09 10:12:46;;;;;;;16.20;6.15;;;;;;;;;;5059154;28;20125;-77
2022/05/09 10:15:36;;;;;;;14.75;6.85;;;;;;;;;;5062559;28;20140;-77
2022/05/09 10:18:19;;;;;;;19.60;5.95;;;;;;;;;;5060033;28;20101;-77
2022/05/09 10:20:47;;;;;;;10.73;5.20;;;;;;;;;;5060329;28;20063;-75
2022/05/09 10:26:14;;;;;;;11.70;4.20;;;;;;;;;;5064278;28;20048;-77
2022/05/09 10:28:45;;;;;;;16.48;5.00;;;;;;;;;;5059316;28;20040;-77
2022/05/09 10:31:32;;;;;;;15.10;5.35;;;;;;;;;;5061082;28;20040;-78
2022/05/09 10:33:58;;;;;;;14.23;5.15;;;;;;;;;;5043490;28;20044;-77
2022/05/09 10:36:30;;;;;;;16.23;5.00;;;;;;;;;;5059693;28;20040;-76
2022/05/09 10:38:59;;;;;;;12.25;4.57;;;;;;;;;;5061555;28;20144;-77
2022/05/09 10:41:29;;;;;;;21.15;6.20;;;;;;;;;;5057325;28;20048;-77
2022/05/09 10:44:07;;;;;;;12.63;5.00;;;;;;;;;;5063873;28;20119;-77
2022/05/09 10:46:47;;;;;;;16.25;4.60;;;;;;;;;;5059400;28;20349;-79
2022/05/09 10:49:19;;;;;;;11.73;4.47;;;;;;;;;;5043046;28;20067;-77
2022/05/09 10:52:09;;;;;;;14.95;5.40;;;;;;;;;;5061625;28;20036;-77
2022/05/09 10:54:44;;;;;;;17.33;5.25;;;;;;;;;;5010368;28;20051;-78
2022/05/09 10:57:10;;;;;;;13.07;4.78;;;;;;;;;;5047430;28;20044;-78
2022/05/09 10:59:41;;;;;;;14.35;4.85;;;;;;;;;;5047806;28;20382;-77
2022/05/09 11:02:14;;;;;;;20.58;5.05;;;;;;;;;;5065893;28;20044;-79
2022/05/09 11:04:40;;;;;;;9.98;4.55;;;;;;;;;;5048557;28;20132;-81
2022/05/09 11:07:25;;;;;;;11.05;4.38;;;;;;;;;;5065522;28;20044;-78
2022/05/09 11:10:17;;;;;;;16.70;5.28;;;;;;;;;;5066252;28;20044;-77
2022/05/09 11:12:43;;;;;;;15.43;4.55;;;;;;;;;;5029073;28;20059;-81
2022/05/09 11:15:18;;;;;;;14.77;4.53;;;;;;;;;;5045819;28;20104;-78
2022/05/09 11:18:00;;;;;;;17.67;5.07;;;;;;;;;;5082094;28;20087;-76
2022/05/09 11:20:31;;;;;;;12.70;4.28;;;;;;;;;;5062200;28;20484;-77
2022/05/09 11:23:04;;;;;;;13.25;5.10;;;;;;;;;;5049184;28;20048;-79
2022/05/09 11:25:32;;;;;;;15.45;4.38;;;;;;;;;;5045509;28;20057;-76
2022/05/09 11:27:58;;;;;;;18.95;4.05;;;;;;;;;;5064014;28;20056;-78
2022/05/09 11:30:27;;;;;;;12.70;4.25;;;;;;;;;;5065199;28;20044;-79
2022/05/09 11:33:11;;;;;;;15.77;4.72;;;;;;;;;;5065343;28;20527;-77
2022/05/09 11:35:39;;;;;;;16.13;4.63;;;;;;;;;;5048786;28;20052;-77
2022/05/09 11:38:09;;;;;;;10.10;3.97;;;;;;;;;;5064351;28;20052;-78
2022/05/09 11:40:41;;;;;;;10.85;4.03;;;;;;;;;;5031956;28;20091;-78
2022/05/09 11:43:29;;;;;;;9.35;3.97;;;;;;;;;;5063451;28;20504;-78
2022/05/09 11:46:13;;;;;;;10.52;4.30;;;;;;;;;;5030852;28;20540;-78
2022/05/09 11:48:43;;;;;;;16.20;3.97;;;;;;;;;;5048493;28;20740;-78
2022/05/09 11:51:27;;;;;;;9.73;3.50;;;;;;;;;;5064797;28;20450;-77
2022/05/09 11:54:05;;;;;;;10.73;3.88;;;;;;;;;;5065824;28;20504;-77
2022/05/09 11:56:32;;;;;;;7.63;3.63;;;;;;;;;;5047299;28;20064;-80
2022/05/09 11:58:59;;;;;;;9.20;3.72;;;;;;;;;;5064206;28;20226;-77
2022/05/09 12:01:43;;;;;;;9.70;3.80;;;;;;;;;;5070191;28;20040;-78
2022/05/09 12:04:27;;;;;;;8.68;3.55;;;;;;;;;;5050035;28;20051;-77
2022/05/09 12:06:53;;;;;;;16.65;3.78;;;;;;;;;;5069655;28;20145;-77
2022/05/09 12:10:02;;;;;;;13.88;4.10;;;;;;;;;;5044555;28;20037;-77
2022/05/09 12:12:38;;;;;;;8.65;3.40;;;;;;;;;;4966950;28;21151;-77
2022/05/09 12:15:05;;;;;;;9.50;3.83;;;;;;;;;;4967828;28;20519;-77
2022/05/09 12:17:54;;;;;;;12.00;3.80;;;;;;;;;;5024042;28;20063;-76
2022/05/09 12:20:26;;;;;;;10.90;3.42;;;;;;;;;;5067687;28;20067;-77
2022/05/09 12:22:53;;;;;;;14.00;4.00;;;;;;;;;;5069415;28;20060;-77
2022/05/09 12:25:41;;;;;;;10.88;3.83;;;;;;;;;;5067847;28;20029;-78
2022/05/09 12:28:18;;;;;;;12.35;4.00;;;;;;;;;;5051742;28;20413;-77
2022/05/09 12:31:16;;;;;;;12.65;4.13;;;;;;;;;;5068952;28;20070;-77
2022/05/09 12:33:45;;;;;;;10.38;3.30;;;;;;;;;;5069039;28;20048;-76
2022/05/09 12:36:14;;;;;;;7.63;3.42;;;;;;;;;;5069853;28;20048;-79
2022/05/09 12:38:41;;;;;;;13.68;3.75;;;;;;;;;;5067797;28;20054;-77
2022/05/09 12:41:25;;;;;;;11.57;3.25;;;;;;;;;;5069958;28;20046;-76
2022/05/09 12:43:53;;;;;;;9.70;3.47;;;;;;;;;;5068039;28;20558;-77
2022/05/09 12:46:25;;;;;;;8.82;3.15;;;;;;;;;;5070672;28;20044;-77
2022/05/09 12:48:51;;;;;;;11.25;4.38;;;;;;;;;;5036410;28;20071;-80
2022/05/09 12:51:18;;;;;;;10.48;3.40;;;;;;;;;;5068427;28;20036;-79
2022/05/09 12:53:45;;;;;;;9.13;3.72;;;;;;;;;;5069396;28;20480;-80
2022/05/09 12:56:22;;;;;;;11.95;3.65;;;;;;;;;;5048944;28;20041;-76
2022/05/09 12:58:58;;;;;;;11.68;3.30;;;;;;;;;;5067588;28;20043;-81
2022/05/09 13:01:27;;;;;;;15.25;3.88;;;;;;;;;;5065619;28;20079;-81
2022/05/09 13:04:04;;;;;;;10.57;3.63;;;;;;;;;;5069081;28;20045;-75
2022/05/09 13:06:33;;;;;;;14.70;4.35;;;;;;;;;;5073451;28;20025;-80
2022/05/09 13:09:11;;;;;;;15.63;3.97;;;;;;;;;;5076710;28;20053;-75
2022/05/09 13:11:37;;;;;;;12.10;3.63;;;;;;;;;;5078461;28;20036;-76
2022/05/09 13:14:12;;;;;;;14.63;3.72;;;;;;;;;;5071463;28;20365;-76
2022/05/09 13:16:39;;;;;;;19.27;4.53;;;;;;;;;;5067850;28;20556;-76
2022/05/09 13:19:06;;;;;;;10.20;4.15;;;;;;;;;;5060427;28;20040;-75
2022/05/09 13:21:35;;;;;;;13.77;3.60;;;;;;;;;;5047097;28;20127;-77
2022/05/09 13:24:03;;;;;;;11.75;3.60;;;;;;;;;;5062907;28;20186;-77
2022/05/09 13:26:31;;;;;;;10.77;3.75;;;;;;;;;;5061652;28;20033;-76
2022/05/09 13:29:09;;;;;;;15.02;4.70;;;;;;;;;;5063323;28;20043;-76
2022/05/09 13:31:38;;;;;;;13.68;4.25;;;;;;;;;;5057275;28;20127;-79
2022/05/09 13:34:04;;;;;;;14.43;4.28;;;;;;;;;;5062479;28;20143;-76
2022/05/09 13:36:37;;;;;;;16.80;4.35;;;;;;;;;;5061791;28;20072;-77
2022/05/09 13:39:04;;;;;;;13.52;3.80;;;;;;;;;;5061645;28;20263;-77
2022/05/09 13:41:31;;;;;;;15.10;4.10;;;;;;;;;;5063942;28;20037;-77
2022/05/09 13:43:59;;;;;;;14.10;3.72;;;;;;;;;;5063646;28;20055;-76
2022/05/09 13:46:33;;;;;;;8.63;3.45;;;;;;;;;;5063756;28;20041;-77
2022/05/09 13:49:02;;;;;;;8.85;3.97;;;;;;;;;;5058202;28;20044;-77
2022/05/09 13:51:42;;;;;;;19.90;4.55;;;;;;;;;;5062589;28;20914;-78
2022/05/09 13:54:09;;;;;;;11.73;3.67;;;;;;;;;;5062129;28;20044;-76
2022/05/09 13:56:36;;;;;;;13.98;4.00;;;;;;;;;;5063868;28;20075;-76
2022/05/09 13:59:04;;;;;;;13.65;3.75;;;;;;;;;;5063823;28;20037;-76
2022/05/09 14:01:43;;;;;;;13.50;3.65;;;;;;;;;;5061227;28;20480;-77
2022/05/09 14:04:13;;;;;;;15.07;4.18;;;;;;;;;;5063166;28;20276;-75
2022/05/09 14:06:39;;;;;;;14.70;3.90;;;;;;;;;;5060360;28;20119;-77
2022/05/09 14:09:17;;;;;;;12.88;3.78;;;;;;;;;;5043668;28;20048;-76
2022/05/09 14:12:00;;;;;;;12.50;3.58;;;;;;;;;;5063649;28;20174;-76
2022/05/09 14:14:33;;;;;;;13.85;4.53;;;;;;;;;;5059469;28;20060;-76
2022/05/09 14:17:01;;;;;;;9.50;3.75;;;;;;;;;;5068819;28;20044;-78
2022/05/09 14:19:29;;;;;;;11.07;4.15;;;;;;;;;;5061359;28;20437;-77
2022/05/09 14:22:02;;;;;;;10.18;4.10;;;;;;;;;;5041600;28;20040;-76
2022/05/09 14:24:31;;;;;;;11.70;3.72;;;;;;;;;;5060783;28;20080;-77
2022/05/09 14:29:55;;;;;;;17.70;3.75;;;;;;;;;;5044786;28;20041;-78
2022/05/09 14:32:40;;;;;;;12.88;3.50;;;;;;;;;;5041467;28;20048;-77
2022/05/09 14:35:07;;;;;;;12.93;3.70;;;;;;;;;;5040982;28;20051;-77
2022/05/09 14:37:34;;;;;;;10.30;3.50;;;;;;;;;;5058867;28;20393;-79
2022/05/09 14:40:06;;;;;;;15.32;3.92;;;;;;;;;;5060278;28;20036;-78
2022/05/09 14:42:33;;;;;;;12.63;3.80;;;;;;;;;;5059723;28;20036;-77
2022/05/09 14:45:07;;;;;;;13.18;3.90;;;;;;;;;;5057998;28;20037;-78
2022/05/09 14:47:44;;;;;;;13.82;3.28;;;;;;;;;;5063502;28;20067;-78
2022/05/09 14:50:29;;;;;;;9.82;3.40;;;;;;;;;;5059687;28;20071;-79
2022/05/09 14:53:01;;;;;;;13.73;4.05;;;;;;;;;;5061500;28;20112;-77
2022/05/09 14:58:34;;;;;;;12.57;3.40;;;;;;;;;;5059291;28;20081;-79
2022/05/09 15:01:02;;;;;;;11.75;3.42;;;;;;;;;;5066641;28;20072;-81
2022/05/09 15:03:29;;;;;;;13.82;3.75;;;;;;;;;;5065307;28;20070;-77